Time;durP1;ratioP1;P1;durP2;ratioP2;P2;SDS_P1;SDS_P2;PMS_P1;PMS_P2;Temp;Humidity;BMP_temperature;BMP_pressure;BME280_temperature;BME280_humidity;BME280_pressure;Samples;Min_cycle;Max_cycle;Signal;HPM_P1;HPM_P2
2022/06/09 00:00:08;;;;;;;0.10;0.10;;;14.80;99.90;;;;;;5015265;28;20022;-75
2022/06/09 00:02:35;;;;;;;0.10;0.10;;;14.70;99.90;;;;;;4998751;28;20026;-75
2022/06/09 00:05:03;;;;;;;0.10;0.10;;;14.70;99.90;;;;;;5015116;28;20096;-75
2022/06/09 00:07:30;;;;;;;0.00;0.00;;;14.80;99.90;;;;;;5032676;28;20053;-75
2022/06/09 00:10:10;;;;;;;0.10;0.10;;;14.70;99.90;;;;;;5015098;28;20424;-75
2022/06/09 00:12:36;;;;;;;0.10;0.10;;;14.50;99.90;;;;;;5031524;28;20029;-75
2022/06/09 00:15:04;;;;;;;0.10;0.10;;;14.30;99.90;;;;;;5015201;28;20096;-75
2022/06/09 00:17:31;;;;;;;0.10;0.10;;;14.00;99.90;;;;;;5014684;28;20147;-75
2022/06/09 00:19:56;;;;;;;0.00;0.00;;;13.90;99.90;;;;;;5031324;28;20436;-74
2022/06/09 00:22:22;;;;;;;0.10;0.10;;;13.80;99.90;;;;;;5031237;28;20021;-75
2022/06/09 00:24:48;;;;;;;0.00;0.00;;;13.80;99.90;;;;;;5032441;28;20028;-75
2022/06/09 00:27:14;;;;;;;0.10;0.10;;;13.70;99.90;;;;;;5032368;28;20469;-75
2022/06/09 00:29:40;;;;;;;0.15;0.15;;;13.60;99.90;;;;;;5014876;28;20531;-75
2022/06/09 00:32:06;;;;;;;0.13;0.13;;;13.60;99.90;;;;;;5032574;28;20075;-75
2022/06/09 00:34:32;;;;;;;0.10;0.10;;;13.60;99.90;;;;;;5014598;28;20083;-75
2022/06/09 00:36:57;;;;;;;0.08;0.08;;;13.60;99.90;;;;;;4998128;28;20480;-75
2022/06/09 00:39:23;;;;;;;0.28;0.28;;;13.60;99.90;;;;;;5014693;28;20053;-75
2022/06/09 00:41:49;;;;;;;0.10;0.10;;;13.50;99.90;;;;;;5032062;28;20060;-74
2022/06/09 00:44:16;;;;;;;0.20;0.20;;;13.50;99.90;;;;;;5014605;28;20112;-74
2022/06/09 00:46:43;;;;;;;0.10;0.10;;;13.50;99.90;;;;;;5032134;28;20067;-75
2022/06/09 00:49:30;;;;;;;0.15;0.15;;;13.50;99.90;;;;;;5032125;28;20036;-75
2022/06/09 00:51:59;;;;;;;6.22;0.52;;;13.50;99.90;;;;;;5032342;28;20101;-75
2022/06/09 00:54:33;;;;;;;0.10;0.10;;;13.50;99.90;;;;;;5014598;28;20028;-75
2022/06/09 00:57:11;;;;;;;0.10;0.10;;;13.70;99.90;;;;;;5031998;28;20029;-75
2022/06/09 00:59:39;;;;;;;0.00;0.00;;;13.80;99.90;;;;;;5014333;28;20461;-75
2022/06/09 01:02:08;;;;;;;0.20;0.20;;;13.80;99.90;;;;;;5014187;28;20114;-75
2022/06/09 01:04:35;;;;;;;0.20;0.20;;;13.80;99.90;;;;;;5032091;28;20100;-75
2022/06/09 01:07:09;;;;;;;0.10;0.10;;;13.80;99.90;;;;;;5031786;28;20033;-75
2022/06/09 01:09:36;;;;;;;0.10;0.10;;;13.70;99.90;;;;;;5031943;28;20040;-75
2022/06/09 01:12:02;;;;;;;0.10;0.10;;;13.80;99.90;;;;;;5014216;28;20037;-75
2022/06/09 01:14:31;;;;;;;0.20;0.20;;;13.70;99.90;;;;;;5014248;28;20071;-74
2022/06/09 01:17:18;;;;;;;0.00;0.00;;;13.80;99.90;;;;;;5031747;28;20432;-75
2022/06/09 01:19:59;;;;;;;0.00;0.00;;;13.90;99.90;;;;;;5031660;28;20032;-75
2022/06/09 01:22:52;;;;;;;0.05;0.05;;;14.10;99.90;;;;;;4997720;28;20030;-75
2022/06/09 01:25:36;;;;;;;0.15;0.15;;;14.10;99.90;;;;;;5014169;28;20040;-74
2022/06/09 01:28:26;;;;;;;0.00;0.00;;;14.10;99.90;;;;;;5031499;28;20029;-75
2022/06/09 01:30:58;;;;;;;0.03;0.03;;;14.20;99.90;;;;;;5031832;28;20381;-75
2022/06/09 01:33:50;;;;;;;0.10;0.10;;;14.30;99.90;;;;;;5014153;28;20029;-75
2022/06/09 01:36:28;;;;;;;0.10;0.10;;;14.10;99.90;;;;;;5014102;28;20025;-75
2022/06/09 01:38:57;;;;;;;0.40;0.40;;;14.20;99.90;;;;;;5031662;28;20032;-75
2022/06/09 01:41:24;;;;;;;0.10;0.10;;;14.20;99.90;;;;;;5031584;28;20025;-75
2022/06/09 01:43:52;;;;;;;0.10;0.10;;;14.20;99.90;;;;;;5013968;28;20022;-74
2022/06/09 01:46:26;;;;;;;0.10;0.10;;;14.30;99.90;;;;;;5013785;28;20029;-74
2022/06/09 01:48:55;;;;;;;0.20;0.20;;;14.20;99.90;;;;;;5030176;28;20108;-75
2022/06/09 01:51:24;;;;;;;0.10;0.10;;;14.20;99.90;;;;;;5013683;28;20116;-75
2022/06/09 01:54:14;;;;;;;0.10;0.10;;;14.10;99.90;;;;;;5032598;28;20030;-75
2022/06/09 01:56:49;;;;;;;0.03;0.03;;;14.20;99.90;;;;;;5017604;28;20060;-75
2022/06/09 01:59:18;;;;;;;0.13;0.13;;;14.20;99.90;;;;;;5017396;28;20029;-75
2022/06/09 02:01:51;;;;;;;0.00;0.00;;;14.30;99.90;;;;;;5017527;28;20083;-75
2022/06/09 02:04:24;;;;;;;0.10;0.10;;;14.30;99.90;;;;;;5035158;28;20052;-74
2022/06/09 02:06:52;;;;;;;0.10;0.10;;;14.40;99.90;;;;;;5035001;28;20024;-74
2022/06/09 02:09:17;;;;;;;0.10;0.10;;;14.40;99.90;;;;;;5033705;28;20115;-75
2022/06/09 02:11:52;;;;;;;0.03;0.03;;;14.40;99.90;;;;;;5017442;28;20053;-75
2022/06/09 02:14:21;;;;;;;0.10;0.10;;;14.30;99.90;;;;;;5033777;28;20434;-75
2022/06/09 02:16:47;;;;;;;0.08;0.08;;;14.30;99.90;;;;;;5034897;28;20036;-75
2022/06/09 02:19:13;;;;;;;0.15;0.15;;;14.30;99.90;;;;;;5017190;28;20030;-75
2022/06/09 02:21:40;;;;;;;0.00;0.00;;;14.30;99.90;;;;;;5017134;28;20080;-75
2022/06/09 02:24:07;;;;;;;0.10;0.10;;;14.30;99.90;;;;;;5033622;23;20128;-71
2022/06/09 02:26:33;;;;;;;0.00;0.00;;;14.30;99.90;;;;;;5054602;28;20032;-72
2022/06/09 02:28:58;;;;;;;0.10;0.10;;;14.30;99.90;;;;;;5036851;28;20025;-71
2022/06/09 02:31:25;;;;;;;0.10;0.10;;;14.30;99.90;;;;;;5054631;28;20029;-72
2022/06/09 02:33:52;;;;;;;0.10;0.10;;;14.30;99.90;;;;;;5054842;28;20108;-72
2022/06/09 02:36:18;;;;;;;0.08;0.08;;;14.10;99.90;;;;;;5036678;28;20029;-70
2022/06/09 02:38:44;;;;;;;0.10;0.10;;;14.10;99.90;;;;;;5054071;28;20103;-71
2022/06/09 02:41:10;;;;;;;0.00;0.00;;;14.20;99.90;;;;;;5054514;28;20037;-72
2022/06/09 02:43:36;;;;;;;0.00;0.00;;;14.10;99.90;;;;;;5036693;28;20426;-71
2022/06/09 02:46:03;;;;;;;0.00;0.00;;;14.20;99.90;;;;;;5036550;28;20079;-72
2022/06/09 02:48:30;;;;;;;0.00;0.00;;;14.30;99.90;;;;;;5036201;28;20055;-72
2022/06/09 02:50:56;;;;;;;0.00;0.00;;;14.50;99.90;;;;;;5054237;28;20025;-72
2022/06/09 02:53:24;;;;;;;0.10;0.10;;;14.50;99.90;;;;;;5054521;28;20384;-72
2022/06/09 02:55:50;;;;;;;0.00;0.00;;;14.50;99.90;;;;;;5036583;28;20040;-72
2022/06/09 02:58:16;;;;;;;0.10;0.10;;;14.50;99.90;;;;;;5053992;28;20366;-72
2022/06/09 03:00:42;;;;;;;0.00;0.00;;;14.50;99.90;;;;;;5019741;28;20090;-72
2022/06/09 03:03:12;;;;;;;0.10;0.10;;;14.40;99.90;;;;;;5054128;28;20060;-71
2022/06/09 03:05:38;;;;;;;0.10;0.10;;;14.40;99.90;;;;;;5053939;28;20025;-72
2022/06/09 03:08:06;;;;;;;0.10;0.10;;;14.40;99.90;;;;;;5053848;28;20476;-72
2022/06/09 03:10:33;;;;;;;0.10;0.10;;;14.40;99.90;;;;;;5053987;28;20009;-72
2022/06/09 03:12:59;;;;;;;0.10;0.10;;;14.40;99.90;;;;;;5054285;28;20029;-71
2022/06/09 03:15:25;;;;;;;0.10;0.10;;;14.50;99.90;;;;;;5053848;28;20021;-72
2022/06/09 03:17:52;;;;;;;0.10;0.10;;;14.40;99.90;;;;;;5053554;28;20021;-71
2022/06/09 03:20:25;;;;;;;0.00;0.00;;;14.50;99.90;;;;;;5035784;28;20021;-72
2022/06/09 03:22:51;;;;;;;0.10;0.10;;;14.40;99.90;;;;;;5053672;28;20117;-71
2022/06/09 03:25:17;;;;;;;0.08;0.08;;;14.40;99.90;;;;;;5053761;28;20100;-71
2022/06/09 03:27:43;;;;;;;0.08;0.08;;;14.40;99.90;;;;;;5035488;28;20052;-71
2022/06/09 03:30:10;;;;;;;0.10;0.10;;;14.60;99.90;;;;;;5035759;28;20032;-71
2022/06/09 03:32:36;;;;;;;0.10;0.10;;;14.70;99.90;;;;;;5053381;28;20037;-71
2022/06/09 03:35:02;;;;;;;0.00;0.00;;;14.80;99.90;;;;;;5053486;28;20021;-71
2022/06/09 03:37:28;;;;;;;0.00;0.00;;;14.80;99.90;;;;;;5053300;28;20028;-72
2022/06/09 03:39:54;;;;;;;0.10;0.10;;;14.80;99.90;;;;;;5053365;28;20021;-72
2022/06/09 03:42:19;;;;;;;0.10;0.10;;;14.80;99.90;;;;;;5053361;28;20040;-72
2022/06/09 03:44:46;;;;;;;0.00;0.00;;;14.80;99.90;;;;;;5053475;28;20074;-71
2022/06/09 03:47:11;;;;;;;0.05;0.05;;;14.90;99.90;;;;;;5035067;28;20417;-71
2022/06/09 03:49:38;;;;;;;0.10;0.10;;;14.80;99.90;;;;;;5053213;28;20044;-71
2022/06/09 03:52:04;;;;;;;0.10;0.10;;;14.90;99.90;;;;;;5053545;28;20108;-71
2022/06/09 03:54:30;;;;;;;0.10;0.10;;;15.00;99.90;;;;;;5053284;28;20151;-71
2022/06/09 03:56:57;;;;;;;0.10;0.10;;;15.20;99.90;;;;;;5019208;28;20140;-72
2022/06/09 03:59:23;;;;;;;0.00;0.00;;;15.10;99.90;;;;;;5052894;28;20056;-71
2022/06/09 04:01:49;;;;;;;0.00;0.00;;;15.10;99.90;;;;;;5052963;28;20455;-72
2022/06/09 04:04:14;;;;;;;0.00;0.00;;;15.10;99.90;;;;;;5035140;28;20021;-72
2022/06/09 04:06:41;;;;;;;0.13;0.13;;;15.20;99.90;;;;;;5052599;28;20031;-72
2022/06/09 04:09:07;;;;;;;0.03;0.03;;;15.30;99.90;;;;;;5052746;28;20021;-72
2022/06/09 04:11:33;;;;;;;0.10;0.10;;;15.20;99.90;;;;;;5034874;28;20036;-72
2022/06/09 04:14:00;;;;;;;0.10;0.10;;;15.10;99.90;;;;;;5052710;28;20427;-72
2022/06/09 04:16:32;;;;;;;0.08;0.08;;;15.10;99.90;;;;;;5052179;28;20396;-72
2022/06/09 04:19:01;;;;;;;0.03;0.03;;;14.90;99.90;;;;;;5052634;28;20032;-71
2022/06/09 04:21:28;;;;;;;0.00;0.00;;;14.90;99.90;;;;;;5052552;28;20052;-72
2022/06/09 04:23:55;;;;;;;0.10;0.10;;;15.00;99.90;;;;;;5018196;28;20043;-72
2022/06/09 04:26:25;;;;;;;0.05;0.05;;;15.20;99.90;;;;;;5052330;28;20021;-71
2022/06/09 04:28:51;;;;;;;0.00;0.00;;;15.10;99.90;;;;;;5018049;28;20078;-72
2022/06/09 04:31:17;;;;;;;0.10;0.10;;;15.00;99.90;;;;;;5052553;28;20289;-72
2022/06/09 04:33:43;;;;;;;0.00;0.00;;;15.00;99.90;;;;;;5052303;28;20032;-71
2022/06/09 04:36:10;;;;;;;0.10;0.10;;;15.00;99.90;;;;;;5052384;28;20044;-72
2022/06/09 04:38:36;;;;;;;0.00;0.00;;;15.00;99.90;;;;;;5052513;28;20067;-72
2022/06/09 04:41:03;;;;;;;0.10;0.10;;;15.00;99.90;;;;;;5052274;28;20029;-72
2022/06/09 04:43:29;;;;;;;0.10;0.10;;;15.00;99.90;;;;;;5034325;28;20032;-72
2022/06/09 04:45:55;;;;;;;1.85;1.65;;;15.00;99.90;;;;;;5034433;28;20439;-71
2022/06/09 04:48:21;;;;;;;0.00;0.00;;;14.70;99.90;;;;;;5051693;28;20048;-72
2022/06/09 04:50:47;;;;;;;0.10;0.10;;;14.70;99.90;;;;;;5034211;28;20033;-71
2022/06/09 04:53:13;;;;;;;0.00;0.00;;;14.70;99.90;;;;;;5052119;28;20435;-71
2022/06/09 04:55:41;;;;;;;0.00;0.00;;;14.80;99.90;;;;;;5052300;28;20063;-71
2022/06/09 04:58:08;;;;;;;0.10;0.10;;;14.80;99.90;;;;;;5051917;28;20021;-71
2022/06/09 05:00:33;;;;;;;0.00;0.00;;;14.80;99.90;;;;;;5034082;28;20029;-72
2022/06/09 05:03:00;;;;;;;0.10;0.10;;;14.80;99.90;;;;;;5051925;28;20025;-71
2022/06/09 05:05:35;;;;;;;0.08;0.08;;;14.80;99.90;;;;;;5050491;28;20017;-72
2022/06/09 05:08:01;;;;;;;0.10;0.10;;;14.90;99.90;;;;;;5051660;28;20027;-72
2022/06/09 05:10:27;;;;;;;0.65;0.57;;;15.00;99.90;;;;;;5051818;28;20032;-71
2022/06/09 05:12:54;;;;;;;0.03;0.03;;;14.90;99.90;;;;;;5034064;28;20028;-72
2022/06/09 05:15:21;;;;;;;0.00;0.00;;;14.90;99.90;;;;;;5034071;28;20029;-71
2022/06/09 05:17:48;;;;;;;0.00;0.00;;;15.10;99.90;;;;;;5033592;28;20029;-71
2022/06/09 05:20:16;;;;;;;0.00;0.00;;;15.20;99.90;;;;;;5051753;28;20029;-71
2022/06/09 05:22:42;;;;;;;0.10;0.10;;;15.10;99.90;;;;;;5051413;28;20025;-72
2022/06/09 05:25:09;;;;;;;0.00;0.00;;;15.00;99.90;;;;;;5050902;28;20400;-71
2022/06/09 05:27:35;;;;;;;0.00;0.00;;;15.10;99.90;;;;;;5055762;28;20036;-72
2022/06/09 05:30:03;;;;;;;0.30;0.30;;;15.10;99.90;;;;;;5062892;28;20066;-72
2022/06/09 05:32:29;;;;;;;0.10;0.10;;;15.10;99.90;;;;;;5075665;28;20025;-72
2022/06/09 05:34:55;;;;;;;0.10;0.10;;;15.10;99.90;;;;;;5062312;28;20033;-71
2022/06/09 05:37:20;;;;;;;0.10;0.10;;;15.10;99.90;;;;;;5055380;28;20031;-71
2022/06/09 05:45:16;;;;;;;0.10;0.10;;;15.10;99.90;;;;;;5054182;28;20045;-72
2022/06/09 05:47:42;;;;;;;0.03;0.03;;;15.10;99.90;;;;;;5055420;28;20385;-71
2022/06/09 05:50:10;;;;;;;0.10;0.10;;;15.00;99.90;;;;;;5056264;28;20032;-72
2022/06/09 05:52:37;;;;;;;0.08;0.08;;;15.00;99.90;;;;;;5038952;28;20017;-72
2022/06/09 05:55:04;;;;;;;0.00;0.00;;;15.00;99.90;;;;;;5056331;28;20025;-71
2022/06/09 05:57:30;;;;;;;0.10;0.10;;;15.10;99.90;;;;;;5055895;28;20040;-72
2022/06/09 05:59:56;;;;;;;0.10;0.10;;;15.20;99.90;;;;;;5063278;28;20108;-71
2022/06/09 06:02:25;;;;;;;0.10;0.10;;;15.20;99.90;;;;;;5075060;28;20111;-71
2022/06/09 06:04:52;;;;;;;0.00;0.00;;;15.30;99.90;;;;;;5074893;28;20024;-71
2022/06/09 06:07:18;;;;;;;0.10;0.10;;;15.30;99.90;;;;;;5073744;28;20471;-72
2022/06/09 06:09:43;;;;;;;0.00;0.00;;;15.40;99.90;;;;;;5072683;28;20013;-71
2022/06/09 06:12:09;;;;;;;0.00;0.00;;;15.30;99.90;;;;;;5074779;28;20081;-71
2022/06/09 06:14:36;;;;;;;0.13;0.10;;;15.30;99.90;;;;;;5074746;28;20036;-72
2022/06/09 06:17:02;;;;;;;0.00;0.00;;;15.20;99.90;;;;;;5074911;28;20549;-72
2022/06/09 06:19:28;;;;;;;0.10;0.10;;;15.10;99.90;;;;;;5074922;28;20032;-72
2022/06/09 06:21:54;;;;;;;0.05;0.05;;;15.30;99.90;;;;;;5026150;28;20380;-72
2022/06/09 06:24:24;;;;;;;0.10;0.10;;;15.40;99.90;;;;;;5052180;28;20106;-72
2022/06/09 06:26:51;;;;;;;0.00;0.00;;;15.30;99.90;;;;;;5038049;28;20508;-72
2022/06/09 06:29:22;;;;;;;0.15;0.15;;;15.20;99.90;;;;;;5057787;28;20350;-72
2022/06/09 06:31:48;;;;;;;0.10;0.10;;;15.30;99.90;;;;;;5074796;28;20032;-72
2022/06/09 06:34:14;;;;;;;0.10;0.10;;;15.20;99.90;;;;;;5056641;28;20031;-72
2022/06/09 06:36:40;;;;;;;0.15;0.15;;;15.20;99.90;;;;;;5074765;28;20115;-72
2022/06/09 06:39:06;;;;;;;0.10;0.10;;;15.30;99.90;;;;;;5060172;28;20032;-71
2022/06/09 06:41:32;;;;;;;0.10;0.10;;;15.20;99.90;;;;;;5054240;28;20029;-71
2022/06/09 06:43:58;;;;;;;0.35;0.35;;;15.00;99.90;;;;;;5036947;28;20373;-72
2022/06/09 06:46:23;;;;;;;0.35;0.30;;;15.10;99.90;;;;;;5054221;28;20023;-71
2022/06/09 06:48:49;;;;;;;0.15;0.15;;;15.10;99.90;;;;;;5054075;28;20032;-72
2022/06/09 06:51:15;;;;;;;0.10;0.10;;;15.10;99.90;;;;;;5036416;28;20028;-72
2022/06/09 06:53:41;;;;;;;0.00;0.00;;;15.20;99.90;;;;;;5052489;28;20029;-71
2022/06/09 06:56:08;;;;;;;0.20;0.20;;;15.20;99.90;;;;;;5052702;28;20064;-71
2022/06/09 06:58:35;;;;;;;0.13;0.13;;;15.10;99.90;;;;;;5054163;28;20540;-72
2022/06/09 07:01:02;;;;;;;0.00;0.00;;;15.00;99.90;;;;;;5054236;28;20021;-72
2022/06/09 07:03:48;;;;;;;;;;;;;;;;;;;;;
2022/06/09 07:06:23;;;;;;;0.10;0.10;;;15.00;99.90;;;;;;5053687;28;20147;-73
2022/06/09 07:08:49;;;;;;;0.10;0.10;;;15.00;99.90;;;;;;5054031;28;20043;-72
2022/06/09 07:11:15;;;;;;;0.05;0.05;;;15.20;99.90;;;;;;5053774;28;20481;-73
2022/06/09 07:13:42;;;;;;;0.00;0.00;;;15.30;99.90;;;;;;5053608;28;20029;-72
2022/06/09 07:16:09;;;;;;;0.00;0.00;;;15.20;99.90;;;;;;5053650;28;20052;-72
2022/06/09 07:18:35;;;;;;;0.00;0.00;;;15.20;99.90;;;;;;5035834;28;20025;-72
2022/06/09 07:21:02;;;;;;;0.03;0.03;;;15.20;99.90;;;;;;5053854;28;20098;-72
2022/06/09 07:23:30;;;;;;;0.10;0.10;;;15.10;99.90;;;;;;5048772;28;20025;-74
2022/06/09 07:25:58;;;;;;;0.03;0.03;;;14.90;99.90;;;;;;5043494;28;20020;-72
2022/06/09 07:28:25;;;;;;;0.00;0.00;;;14.90;99.90;;;;;;5028973;28;20033;-73
2022/06/09 07:30:56;;;;;;;0.10;0.10;;;14.80;99.90;;;;;;5043772;28;20410;-72
2022/06/09 07:33:23;;;;;;;0.00;0.00;;;14.70;99.90;;;;;;5043132;28;20028;-73
2022/06/09 07:35:52;;;;;;;0.10;0.10;;;14.60;99.90;;;;;;5043779;28;20052;-73
2022/06/09 07:38:19;;;;;;;0.38;0.10;;;14.50;99.90;;;;;;5042428;28;20029;-73
2022/06/09 07:40:45;;;;;;;0.00;0.00;;;14.40;99.90;;;;;;5035723;28;20570;-73
2022/06/09 07:43:11;;;;;;;0.03;0.03;;;14.30;99.90;;;;;;5043684;28;20059;-73
2022/06/09 07:45:39;;;;;;;0.00;0.00;;;14.40;99.90;;;;;;5043645;28;20036;-72
2022/06/09 07:48:05;;;;;;;0.00;0.00;;;14.30;99.90;;;;;;5043662;28;20033;-73
2022/06/09 07:50:33;;;;;;;0.10;0.10;;;14.20;99.90;;;;;;5019593;28;20103;-72
2022/06/09 07:52:59;;;;;;;0.10;0.10;;;13.80;99.90;;;;;;5042624;28;20029;-73
2022/06/09 07:55:26;;;;;;;0.00;0.00;;;13.30;99.90;;;;;;5043369;28;20304;-72
2022/06/09 07:57:53;;;;;;;0.10;0.10;;;13.30;99.90;;;;;;5034896;28;20055;-72
2022/06/09 08:00:21;;;;;;;0.10;0.10;;;13.50;99.90;;;;;;5042866;28;20064;-73
2022/06/09 08:02:48;;;;;;;0.00;0.00;;;13.50;99.90;;;;;;5041204;28;20592;-73
2022/06/09 08:05:17;;;;;;;0.10;0.10;;;13.40;99.90;;;;;;5043181;28;20145;-73
2022/06/09 08:07:43;;;;;;;0.10;0.10;;;13.50;99.90;;;;;;5043529;28;20484;-72
2022/06/09 08:10:12;;;;;;;0.00;0.00;;;13.40;99.90;;;;;;5043129;28;20025;-73
2022/06/09 08:12:38;;;;;;;0.10;0.10;;;13.20;99.90;;;;;;5034064;28;20471;-74
2022/06/09 08:15:05;;;;;;;0.00;0.00;;;13.00;99.90;;;;;;5043067;28;20081;-73
2022/06/09 08:17:31;;;;;;;0.65;0.65;;;13.00;99.90;;;;;;5042849;28;20028;-72
2022/06/09 08:19:58;;;;;;;0.55;0.50;;;13.00;99.90;;;;;;5038089;28;20036;-72
2022/06/09 08:22:24;;;;;;;1.17;0.40;;;13.10;99.90;;;;;;5025045;28;20032;-73
2022/06/09 08:24:49;;;;;;;0.20;0.20;;;12.80;99.90;;;;;;5011381;28;20083;-72
2022/06/09 08:27:15;;;;;;;0.00;0.00;;;12.90;99.90;;;;;;5039481;28;20490;-73
2022/06/09 08:29:41;;;;;;;0.00;0.00;;;12.90;99.90;;;;;;5040940;28;20459;-74
2022/06/09 08:32:07;;;;;;;0.00;0.00;;;13.10;99.90;;;;;;5023155;28;20083;-72
2022/06/09 08:34:33;;;;;;;0.10;0.10;;;13.30;99.90;;;;;;5040791;28;20537;-72
2022/06/09 08:36:59;;;;;;;0.05;0.05;;;13.10;99.90;;;;;;5041060;28;20031;-72
2022/06/09 08:39:25;;;;;;;0.00;0.00;;;13.10;99.90;;;;;;5041494;28;20156;-74
2022/06/09 08:42:12;;;;;;;0.00;0.00;;;13.10;99.90;;;;;;5040918;28;20033;-72
2022/06/09 08:44:56;;;;;;;0.00;0.00;;;13.20;99.90;;;;;;5029032;28;20385;-72
2022/06/09 08:47:45;;;;;;;0.10;0.10;;;13.10;99.90;;;;;;5032047;28;20369;-72
2022/06/09 08:50:33;;;;;;;0.00;0.00;;;13.00;99.90;;;;;;5040601;28;20020;-72
2022/06/09 08:53:38;;;;;;;0.52;0.52;;;13.40;99.90;;;;;;5016492;28;20037;-72
2022/06/09 08:56:23;;;;;;;0.00;0.00;;;13.60;99.90;;;;;;4966338;28;20031;-73
2022/06/09 08:58:56;;;;;;;1.55;0.80;;;13.60;99.90;;;;;;5036602;28;20049;-72
2022/06/09 09:02:17;;;;;;;;;;;;;;;;;;;;;
2022/06/09 09:08:06;;;;;;;0.00;0.00;;;13.70;99.90;;;;;;5027655;28;20057;-76
2022/06/09 09:10:49;;;;;;;0.00;0.00;;;13.70;99.90;;;;;;5025249;28;20531;-77
2022/06/09 09:13:21;;;;;;;0.10;0.10;;;13.70;99.90;;;;;;5012961;28;20037;-78
2022/06/09 09:15:57;;;;;;;0.10;0.10;;;13.90;99.90;;;;;;5022576;28;20605;-79
2022/06/09 09:18:22;;;;;;;0.00;0.00;;;14.00;99.90;;;;;;5010600;28;20036;-79
2022/06/09 09:21:11;;;;;;;0.17;0.17;;;14.10;99.90;;;;;;5022465;28;20492;-77
2022/06/09 09:23:58;;;;;;;0.00;0.00;;;14.10;99.90;;;;;;4994930;28;20037;-79
2022/06/09 09:26:31;;;;;;;0.00;0.00;;;14.30;99.90;;;;;;5023294;28;20025;-78
2022/06/09 09:29:22;;;;;;;0.00;0.00;;;14.40;99.90;;;;;;5026723;28;20051;-78
2022/06/09 09:31:55;;;;;;;0.03;0.03;;;14.60;99.90;;;;;;5018417;28;20038;-79
2022/06/09 09:34:24;;;;;;;0.00;0.00;;;14.50;99.90;;;;;;4999776;28;20037;-80
2022/06/09 09:36:57;;;;;;;0.00;0.00;;;14.60;99.90;;;;;;5015666;28;20030;-78
2022/06/09 09:39:46;;;;;;;0.10;0.10;;;14.50;99.90;;;;;;5025036;28;20032;-76
2022/06/09 09:42:20;;;;;;;0.00;0.00;;;14.60;99.90;;;;;;5016216;28;20052;-78
2022/06/09 09:45:09;;;;;;;0.00;0.00;;;14.50;99.90;;;;;;5013774;28;20041;-77
2022/06/09 09:48:22;;;;;;;0.00;0.00;;;14.40;99.90;;;;;;5022903;28;20030;-76
2022/06/09 09:51:03;;;;;;;0.10;0.10;;;14.60;99.90;;;;;;5025389;28;20037;-77
2022/06/09 09:53:30;;;;;;;0.00;0.00;;;14.90;99.90;;;;;;5016256;28;20026;-76
2022/06/09 09:56:00;;;;;;;1.00;0.43;;;15.00;99.90;;;;;;5028352;28;20536;-77
2022/06/09 09:58:26;;;;;;;0.00;0.00;;;15.00;99.90;;;;;;4999388;28;20034;-77
2022/06/09 10:01:05;;;;;;;0.20;0.20;;;14.80;99.90;;;;;;5015254;28;20087;-77
2022/06/09 10:09:26;;;;;;;0.00;0.00;;;15.50;99.90;;;;;;4998918;28;20065;-77
2022/06/09 10:11:57;;;;;;;0.47;0.47;;;15.40;99.90;;;;;;5026907;28;20116;-77
2022/06/09 10:14:45;;;;;;;0.10;0.10;;;15.20;99.90;;;;;;5028669;28;20029;-77
2022/06/09 10:17:36;;;;;;;0.10;0.10;;;14.90;99.90;;;;;;5022809;28;20646;-77
2022/06/09 10:20:28;;;;;;;0.10;0.10;;;14.70;99.90;;;;;;5016404;28;20595;-77
2022/06/09 10:22:59;;;;;;;0.32;0.32;;;14.60;99.90;;;;;;5024515;28;20454;-77
2022/06/09 10:25:30;;;;;;;0.43;0.43;;;14.50;99.90;;;;;;5019229;28;20481;-77
2022/06/09 10:28:13;;;;;;;0.40;0.40;;;14.20;99.90;;;;;;5013229;28;20021;-77
2022/06/09 10:30:47;;;;;;;0.30;0.30;;;13.70;99.90;;;;;;5018540;28;20036;-77
2022/06/09 10:33:20;;;;;;;0.03;0.03;;;13.50;99.90;;;;;;5024363;28;20048;-76
2022/06/09 10:36:20;;;;;;;0.10;0.10;;;13.40;99.90;;;;;;5021713;28;20030;-77
2022/06/09 10:38:53;;;;;;;0.05;0.05;;;13.40;99.90;;;;;;4986029;28;20049;-77
2022/06/09 10:41:54;;;;;;;0.05;0.05;;;13.60;99.90;;;;;;5031694;28;20022;-77
2022/06/09 10:44:29;;;;;;;0.00;0.00;;;13.60;99.90;;;;;;4968081;28;20029;-77
2022/06/09 10:55:51;;;;;;;0.00;0.00;;;13.70;99.90;;;;;;5029738;28;20036;-77
2022/06/09 10:58:44;;;;;;;0.10;0.10;;;13.90;99.90;;;;;;5015203;28;20033;-77
2022/06/09 11:01:24;;;;;;;0.20;0.20;;;13.60;99.90;;;;;;5022950;28;20025;-77
2022/06/09 11:03:51;;;;;;;0.17;0.17;;;13.50;99.90;;;;;;5025874;28;20065;-77
2022/06/09 11:06:36;;;;;;;0.20;0.20;;;13.30;99.90;;;;;;4998890;28;20040;-77
2022/06/09 11:09:20;;;;;;;0.05;0.05;;;13.20;99.90;;;;;;5017773;28;20384;-77
2022/06/09 11:12:16;;;;;;;0.65;0.40;;;13.40;99.90;;;;;;5029847;28;20026;-76
2022/06/09 11:14:51;;;;;;;0.00;0.00;;;13.30;99.90;;;;;;5016333;28;20405;-77
2022/06/09 11:17:26;;;;;;;0.22;0.22;;;13.30;99.90;;;;;;5020308;28;20029;-76
2022/06/09 11:20:15;;;;;;;0.10;0.10;;;13.20;99.90;;;;;;5020181;28;20025;-77
2022/06/09 11:23:11;;;;;;;0.13;0.13;;;13.20;99.90;;;;;;5026014;28;20021;-77
2022/06/09 11:25:58;;;;;;;0.20;0.20;;;13.40;99.90;;;;;;5029416;28;20021;-76
2022/06/09 11:28:26;;;;;;;0.00;0.00;;;13.30;99.90;;;;;;5029726;28;20025;-77
2022/06/09 11:31:04;;;;;;;0.47;0.20;;;13.50;99.90;;;;;;5023329;28;20065;-77
2022/06/09 11:33:52;;;;;;;0.00;0.00;;;13.70;99.90;;;;;;5028641;28;20039;-77
2022/06/09 11:36:21;;;;;;;0.10;0.10;;;13.80;99.90;;;;;;5029240;28;20370;-77
2022/06/09 11:39:02;;;;;;;0.10;0.10;;;13.70;99.90;;;;;;5017958;28;20223;-77
2022/06/09 11:42:13;;;;;;;0.10;0.10;;;13.70;99.90;;;;;;5029699;28;20039;-77
2022/06/09 11:44:41;;;;;;;0.10;0.10;;;13.70;99.90;;;;;;5022360;28;20025;-77
2022/06/09 11:47:17;;;;;;;0.10;0.10;;;13.70;99.90;;;;;;5023448;28;20029;-77
2022/06/09 11:49:54;;;;;;;0.00;0.00;;;13.70;99.90;;;;;;5029472;28;20198;-77
2022/06/09 11:52:28;;;;;;;0.10;0.10;;;13.70;99.90;;;;;;5027508;28;20111;-76
2022/06/09 11:54:58;;;;;;;0.10;0.10;;;13.60;99.90;;;;;;5017249;28;20030;-77
2022/06/09 11:57:45;;;;;;;0.28;0.28;;;13.60;99.90;;;;;;5030327;28;20114;-77
2022/06/09 12:00:26;;;;;;;0.95;0.95;;;13.70;99.90;;;;;;5009120;28;20044;-77
2022/06/09 12:03:19;;;;;;;0.05;0.05;;;13.60;99.90;;;;;;5026656;28;20410;-77
2022/06/09 12:05:58;;;;;;;1.88;0.30;;;13.90;99.90;;;;;;5030269;28;20021;-77
2022/06/09 12:08:58;;;;;;;0.03;0.03;;;14.30;99.90;;;;;;5030101;28;20072;-77
2022/06/09 12:11:44;;;;;;;0.20;0.20;;;14.50;99.90;;;;;;5028961;28;20029;-77
2022/06/09 12:14:23;;;;;;;0.10;0.10;;;14.70;99.90;;;;;;5028816;28;20033;-77
2022/06/09 12:17:12;;;;;;;0.40;0.40;;;14.70;99.90;;;;;;5009321;28;20453;-78
2022/06/09 12:19:55;;;;;;;0.10;0.10;;;14.70;99.90;;;;;;5003807;28;20029;-78
2022/06/09 12:22:40;;;;;;;0.10;0.10;;;14.50;99.90;;;;;;5028094;28;20051;-78
2022/06/09 12:25:10;;;;;;;0.10;0.10;;;14.20;99.90;;;;;;5028913;28;20026;-78
2022/06/09 12:27:39;;;;;;;0.10;0.10;;;14.20;99.90;;;;;;5014676;28;20040;-78
2022/06/09 12:30:28;;;;;;;0.10;0.10;;;14.30;99.90;;;;;;5014653;28;20527;-78
2022/06/09 12:33:23;;;;;;;0.00;0.00;;;14.30;99.90;;;;;;5027448;28;20045;-78
2022/06/09 12:35:54;;;;;;;0.25;0.20;;;14.30;99.90;;;;;;5028372;28;20378;-77
2022/06/09 12:38:22;;;;;;;0.03;0.03;;;14.20;99.90;;;;;;5020540;28;20152;-77
2022/06/09 12:40:55;;;;;;;0.00;0.00;;;14.10;99.90;;;;;;5021976;28;20056;-79
2022/06/09 12:43:31;;;;;;;0.45;0.30;;;14.10;99.90;;;;;;5011387;28;20030;-78
2022/06/09 12:46:19;;;;;;;0.32;0.32;;;14.10;99.90;;;;;;4985914;28;20041;-78
2022/06/09 12:48:46;;;;;;;0.40;0.40;;;14.30;99.90;;;;;;5009303;28;20037;-78
2022/06/09 12:51:31;;;;;;;0.10;0.10;;;14.60;99.90;;;;;;5011259;28;20079;-78
2022/06/09 12:54:07;;;;;;;0.10;0.10;;;14.20;99.90;;;;;;5020205;28;20116;-78
2022/06/09 12:56:37;;;;;;;0.00;0.00;;;14.30;99.90;;;;;;4994287;28;20033;-78
2022/06/09 12:59:16;;;;;;;0.17;0.17;;;14.40;99.90;;;;;;5019712;28;20029;-78
2022/06/09 13:01:54;;;;;;;0.15;0.15;;;14.40;99.90;;;;;;5010667;28;20033;-78
2022/06/09 13:04:22;;;;;;;0.13;0.13;;;14.20;99.90;;;;;;5009524;28;20038;-78
2022/06/09 13:06:48;;;;;;;0.10;0.10;;;14.40;99.90;;;;;;5009972;28;20037;-78
2022/06/09 13:09:19;;;;;;;0.28;0.28;;;14.10;99.90;;;;;;5010261;28;20497;-78
2022/06/09 13:14:34;;;;;;;0.10;0.10;;;14.50;99.90;;;;;;5019374;28;20156;-79
2022/06/09 13:17:07;;;;;;;0.90;0.43;;;14.60;99.90;;;;;;5010515;28;20033;-78
2022/06/09 13:19:34;;;;;;;0.10;0.10;;;14.70;99.90;;;;;;4989422;28;20029;-78
2022/06/09 13:22:06;;;;;;;0.15;0.15;;;14.80;99.90;;;;;;5020254;28;20152;-78
2022/06/09 13:24:36;;;;;;;;;;;14.80;99.90;;;;;;5009511;28;20116;-78
2022/06/09 13:27:09;;;;;;;7.25;0.50;;;15.00;99.90;;;;;;5019534;28;19920;-78
2022/06/09 13:29:51;;;;;;;0.08;0.08;;;15.10;99.90;;;;;;5009746;28;20116;-78
2022/06/09 13:32:25;;;;;;;2.10;0.22;;;15.20;99.90;;;;;;5010243;28;20033;-78
2022/06/09 13:34:55;;;;;;;1.65;0.57;;;14.90;99.90;;;;;;5008007;28;20036;-78
2022/06/09 13:37:42;;;;;;;0.10;0.10;;;15.00;99.90;;;;;;5018049;28;20025;-78
2022/06/09 13:40:09;;;;;;;0.10;0.10;;;15.20;99.90;;;;;;5017630;28;20444;-78